Time;durP1;ratioP1;P1;durP2;ratioP2;P2;SDS_P1;SDS_P2;PMS_P1;PMS_P2;Temp;Humidity;BMP_temperature;BMP_pressure;BME280_temperature;BME280_humidity;BME280_pressure;Samples;Min_cycle;Max_cycle;Signal;HPM_P1;HPM_P2
2021/12/29 00:01:06;;;;;;;8.87;5.83;;;;;;;;;;5147640;27;20204;-76
2021/12/29 00:03:34;;;;;;;8.97;6.47;;;;;;;;;;5154768;27;20555;-74
2021/12/29 00:06:02;;;;;;;14.63;7.83;;;;;;;;;;5160342;27;20223;-75
2021/12/29 00:08:30;;;;;;;9.43;6.30;;;;;;;;;;5160167;27;20227;-76
2021/12/29 00:10:58;;;;;;;9.43;6.07;;;;;;;;;;5159933;27;20733;-74
2021/12/29 00:13:28;;;;;;;7.47;6.47;;;;;;;;;;5157205;27;20295;-75
2021/12/29 00:15:58;;;;;;;7.27;6.03;;;;;;;;;;5134581;27;20666;-75
2021/12/29 00:18:26;;;;;;;8.33;6.77;;;;;;;;;;5138549;27;20200;-75
2021/12/29 00:20:54;;;;;;;8.30;6.17;;;;;;;;;;5138622;27;20612;-75
2021/12/29 00:23:22;;;;;;;7.67;5.50;;;;;;;;;;5130117;27;20201;-75
2021/12/29 00:25:50;;;;;;;9.60;6.80;;;;;;;;;;5133110;27;20224;-75
2021/12/29 00:28:18;;;;;;;7.00;5.93;;;;;;;;;;5128620;27;20223;-75
2021/12/29 00:30:48;;;;;;;8.43;6.63;;;;;;;;;;5135377;27;20204;-75
2021/12/29 00:33:16;;;;;;;8.13;6.20;;;;;;;;;;5138674;27;20235;-75
2021/12/29 00:35:45;;;;;;;7.87;6.30;;;;;;;;;;5138604;27;20206;-75
2021/12/29 00:38:13;;;;;;;7.77;6.57;;;;;;;;;;5138771;27;20204;-75
2021/12/29 00:40:41;;;;;;;9.17;6.67;;;;;;;;;;5138467;27;20208;-75
2021/12/29 00:43:10;;;;;;;10.50;7.57;;;;;;;;;;5124044;28;20232;-75
2021/12/29 00:45:40;;;;;;;10.50;6.90;;;;;;;;;;5118408;27;20272;-75
2021/12/29 00:48:12;;;;;;;7.80;6.87;;;;;;;;;;5136597;28;20230;-75
2021/12/29 00:50:41;;;;;;;10.00;6.77;;;;;;;;;;5137743;28;20211;-75
2021/12/29 00:53:09;;;;;;;7.47;6.10;;;;;;;;;;5138435;28;20200;-75
2021/12/29 00:55:37;;;;;;;8.70;6.80;;;;;;;;;;5138491;28;20215;-75
2021/12/29 00:58:07;;;;;;;9.70;6.80;;;;;;;;;;5139008;27;20284;-75
2021/12/29 01:00:37;;;;;;;8.40;6.63;;;;;;;;;;5134700;28;20204;-75
2021/12/29 01:03:05;;;;;;;7.10;6.37;;;;;;;;;;5146358;27;20200;-75
2021/12/29 01:05:35;;;;;;;7.20;5.07;;;;;;;;;;5158869;27;20211;-75
2021/12/29 01:08:03;;;;;;;7.53;5.73;;;;;;;;;;5159263;27;20225;-75
2021/12/29 01:10:31;;;;;;;7.97;5.80;;;;;;;;;;5159026;27;20562;-75
2021/12/29 01:13:01;;;;;;;6.13;5.23;;;;;;;;;;5145128;27;20196;-75
2021/12/29 01:15:33;;;;;;;6.97;6.10;;;;;;;;;;5136710;28;20204;-75
2021/12/29 01:18:02;;;;;;;7.50;5.80;;;;;;;;;;5138159;28;20238;-75
2021/12/29 01:20:31;;;;;;;8.03;5.73;;;;;;;;;;5136954;28;20694;-75
2021/12/29 01:23:01;;;;;;;9.30;6.17;;;;;;;;;;5138480;28;20207;-75
2021/12/29 01:25:30;;;;;;;7.47;5.87;;;;;;;;;;5138170;28;20218;-76
2021/12/29 01:27:58;;;;;;;7.17;5.60;;;;;;;;;;5138088;28;20210;-75
2021/12/29 01:30:26;;;;;;;7.57;5.70;;;;;;;;;;5123957;28;20200;-75
2021/12/29 01:32:53;;;;;;;8.33;6.00;;;;;;;;;;5138266;28;20214;-75
2021/12/29 01:35:21;;;;;;;8.80;6.67;;;;;;;;;;5138007;28;20730;-75
2021/12/29 01:37:49;;;;;;;9.40;6.47;;;;;;;;;;5138391;28;20230;-75
2021/12/29 01:40:20;;;;;;;8.93;6.90;;;;;;;;;;5138238;28;20210;-75
2021/12/29 01:42:48;;;;;;;9.07;6.10;;;;;;;;;;5136230;28;20242;-76
2021/12/29 01:45:16;;;;;;;5.97;5.37;;;;;;;;;;5136960;28;20193;-75
2021/12/29 01:47:44;;;;;;;8.07;6.33;;;;;;;;;;5137816;28;20228;-75
2021/12/29 01:50:13;;;;;;;9.93;6.30;;;;;;;;;;5138868;27;20252;-76
2021/12/29 01:52:42;;;;;;;5.70;5.13;;;;;;;;;;5141679;27;20651;-75
2021/12/29 01:55:12;;;;;;;7.50;5.63;;;;;;;;;;5141469;27;20215;-75
2021/12/29 01:57:41;;;;;;;8.07;6.10;;;;;;;;;;5151769;27;20219;-75
2021/12/29 02:00:12;;;;;;;7.10;6.07;;;;;;;;;;5143167;27;20196;-75
2021/12/29 02:02:40;;;;;;;6.63;5.47;;;;;;;;;;5140883;27;20647;-75
2021/12/29 02:05:09;;;;;;;5.47;4.97;;;;;;;;;;5162103;27;20272;-75
2021/12/29 02:07:37;;;;;;;7.70;5.67;;;;;;;;;;5161902;27;20716;-75
2021/12/29 02:10:05;;;;;;;6.43;5.47;;;;;;;;;;5162190;27;20226;-75
2021/12/29 02:12:33;;;;;;;7.03;5.47;;;;;;;;;;5153965;27;20204;-75
2021/12/29 02:15:03;;;;;;;6.40;5.47;;;;;;;;;;5135347;27;20200;-75
2021/12/29 02:17:31;;;;;;;6.87;5.20;;;;;;;;;;5141061;27;20720;-75
2021/12/29 02:20:02;;;;;;;4.87;4.37;;;;;;;;;;5140142;27;20280;-76
2021/12/29 02:22:37;;;;;;;6.30;4.73;;;;;;;;;;5141123;27;20734;-75
2021/12/29 02:25:20;;;;;;;6.63;5.57;;;;;;;;;;5141162;27;20200;-75
2021/12/29 02:27:49;;;;;;;5.93;4.80;;;;;;;;;;5141078;27;20228;-75
2021/12/29 02:30:18;;;;;;;6.30;5.70;;;;;;;;;;5139195;27;20315;-76
2021/12/29 02:32:46;;;;;;;5.47;4.80;;;;;;;;;;5128577;27;20230;-75
2021/12/29 02:35:16;;;;;;;5.87;5.27;;;;;;;;;;5140774;27;20222;-75
2021/12/29 02:37:44;;;;;;;5.30;4.80;;;;;;;;;;5141181;27;20232;-75
2021/12/29 02:40:12;;;;;;;4.77;4.37;;;;;;;;;;5140789;27;20219;-76
2021/12/29 02:42:41;;;;;;;4.97;4.23;;;;;;;;;;5140506;27;20236;-75
2021/12/29 02:45:12;;;;;;;4.80;4.33;;;;;;;;;;5134544;27;20218;-75
2021/12/29 02:47:41;;;;;;;6.33;4.17;;;;;;;;;;5139621;27;20258;-75
2021/12/29 02:50:09;;;;;;;5.20;4.40;;;;;;;;;;5139600;27;20224;-75
2021/12/29 02:52:38;;;;;;;4.73;4.23;;;;;;;;;;5140431;27;20203;-75
2021/12/29 02:55:07;;;;;;;5.10;4.37;;;;;;;;;;5140685;27;20268;-75
2021/12/29 02:57:35;;;;;;;5.17;4.67;;;;;;;;;;5144953;27;20582;-75
2021/12/29 03:00:03;;;;;;;6.07;5.47;;;;;;;;;;5155930;27;20206;-75
2021/12/29 03:02:31;;;;;;;5.57;5.00;;;;;;;;;;5133455;27;20563;-74
2021/12/29 03:05:00;;;;;;;4.87;4.37;;;;;;;;;;5140207;27;20238;-75
2021/12/29 03:07:32;;;;;;;5.97;5.13;;;;;;;;;;5140307;27;20224;-75
2021/12/29 03:10:02;;;;;;;5.17;4.67;;;;;;;;;;5140367;27;20238;-75
2021/12/29 03:12:30;;;;;;;6.33;5.70;;;;;;;;;;5131376;27;20197;-75
2021/12/29 03:14:58;;;;;;;7.00;5.23;;;;;;;;;;5134104;27;20193;-75
2021/12/29 03:17:27;;;;;;;5.97;5.30;;;;;;;;;;5143264;27;20712;-74
2021/12/29 03:19:55;;;;;;;6.07;5.47;;;;;;;;;;5148211;27;20194;-74
2021/12/29 03:22:23;;;;;;;8.30;6.17;;;;;;;;;;5136879;27;20197;-74
2021/12/29 03:24:50;;;;;;;6.87;5.90;;;;;;;;;;5129900;27;20197;-74
2021/12/29 03:27:20;;;;;;;7.93;5.83;;;;;;;;;;5130450;27;20226;-74
2021/12/29 03:29:48;;;;;;;6.63;5.57;;;;;;;;;;5129882;27;20225;-74
2021/12/29 03:32:24;;;;;;;6.93;5.93;;;;;;;;;;5129705;27;20192;-74
2021/12/29 03:34:52;;;;;;;7.60;6.27;;;;;;;;;;5131548;27;20192;-74
2021/12/29 03:37:19;;;;;;;5.73;5.23;;;;;;;;;;5128807;27;20227;-74
2021/12/29 03:39:47;;;;;;;7.93;5.87;;;;;;;;;;5131458;27;20207;-73
2021/12/29 03:42:15;;;;;;;6.97;5.90;;;;;;;;;;5124598;27;20730;-74
2021/12/29 03:44:45;;;;;;;7.47;6.73;;;;;;;;;;5128950;27;20293;-74
2021/12/29 03:47:13;;;;;;;10.57;6.27;;;;;;;;;;5128481;27;20219;-74
2021/12/29 03:49:41;;;;;;;9.00;6.53;;;;;;;;;;5127892;27;20216;-74
2021/12/29 03:52:09;;;;;;;8.83;6.90;;;;;;;;;;5129596;27;20217;-73
2021/12/29 03:54:37;;;;;;;7.50;6.47;;;;;;;;;;5127712;27;20196;-74
2021/12/29 03:57:05;;;;;;;8.77;7.47;;;;;;;;;;5131949;27;20216;-73
2021/12/29 03:59:33;;;;;;;9.97;7.53;;;;;;;;;;5128802;27;20201;-73
2021/12/29 04:02:02;;;;;;;9.73;7.30;;;;;;;;;;5128733;27;20203;-74
2021/12/29 04:04:31;;;;;;;8.97;7.43;;;;;;;;;;5130202;27;20225;-73
2021/12/29 04:06:59;;;;;;;10.47;7.33;;;;;;;;;;5129570;27;20678;-74
2021/12/29 04:09:30;;;;;;;8.90;6.40;;;;;;;;;;5128745;27;20196;-74
2021/12/29 04:11:58;;;;;;;12.80;7.67;;;;;;;;;;5127693;27;20205;-74
2021/12/29 04:14:26;;;;;;;10.40;7.27;;;;;;;;;;5129087;27;20204;-74
2021/12/29 04:16:56;;;;;;;10.33;7.00;;;;;;;;;;5125903;27;20699;-73
2021/12/29 04:19:40;;;;;;;8.40;6.53;;;;;;;;;;5127911;27;20208;-74
2021/12/29 04:22:08;;;;;;;10.00;7.13;;;;;;;;;;5130889;27;20195;-74
2021/12/29 04:24:37;;;;;;;9.93;7.17;;;;;;;;;;5138360;27;20200;-74
2021/12/29 04:27:06;;;;;;;9.70;6.87;;;;;;;;;;5136712;27;20375;-74
2021/12/29 04:29:34;;;;;;;9.30;7.00;;;;;;;;;;5136859;27;20200;-74
2021/12/29 04:32:02;;;;;;;8.10;5.90;;;;;;;;;;5123083;27;20196;-74
2021/12/29 04:34:32;;;;;;;7.17;5.70;;;;;;;;;;5122336;27;20188;-74
2021/12/29 04:37:00;;;;;;;5.80;4.80;;;;;;;;;;5136705;27;20710;-74
2021/12/29 04:39:28;;;;;;;4.57;4.10;;;;;;;;;;5135977;27;20202;-74
2021/12/29 04:41:56;;;;;;;5.03;4.43;;;;;;;;;;5136769;27;20244;-74
2021/12/29 04:44:24;;;;;;;4.57;3.80;;;;;;;;;;5133161;27;20200;-74
2021/12/29 04:46:54;;;;;;;5.70;4.40;;;;;;;;;;5129377;28;20702;-73
2021/12/29 04:49:26;;;;;;;5.07;4.43;;;;;;;;;;5138543;28;20565;-74
2021/12/29 04:52:02;;;;;;;4.37;3.90;;;;;;;;;;5127731;28;20233;-74
2021/12/29 04:54:31;;;;;;;4.37;3.93;;;;;;;;;;5136229;28;20218;-74
2021/12/29 04:56:59;;;;;;;4.70;3.67;;;;;;;;;;5150509;27;20223;-74
2021/12/29 04:59:27;;;;;;;5.17;3.83;;;;;;;;;;5159084;27;20203;-74
2021/12/29 05:01:55;;;;;;;3.60;3.30;;;;;;;;;;5137478;27;20549;-74
2021/12/29 05:04:31;;;;;;;4.53;4.10;;;;;;;;;;5155839;27;20203;-74
2021/12/29 05:09:46;;;;;;;4.40;3.70;;;;;;;;;;5137585;28;20204;-74
2021/12/29 05:12:14;;;;;;;4.03;3.63;;;;;;;;;;5138128;28;20211;-74
2021/12/29 05:14:42;;;;;;;4.67;3.40;;;;;;;;;;5138435;28;20651;-74
2021/12/29 05:17:10;;;;;;;4.43;3.80;;;;;;;;;;5127571;27;20227;-74
2021/12/29 05:19:38;;;;;;;4.30;3.90;;;;;;;;;;5138384;28;20210;-75
2021/12/29 05:22:08;;;;;;;6.03;3.47;;;;;;;;;;5138093;28;20678;-74
2021/12/29 05:24:35;;;;;;;3.57;3.27;;;;;;;;;;5139584;27;20208;-74
2021/12/29 05:27:04;;;;;;;4.60;4.10;;;;;;;;;;5140565;27;20218;-74
2021/12/29 05:29:32;;;;;;;3.30;3.00;;;;;;;;;;5129146;27;20204;-74
2021/12/29 05:32:00;;;;;;;4.10;3.70;;;;;;;;;;5141990;27;20231;-74
2021/12/29 05:34:28;;;;;;;3.00;2.80;;;;;;;;;;5140757;27;20196;-75
2021/12/29 05:36:56;;;;;;;3.17;2.90;;;;;;;;;;5142029;27;20234;-74
2021/12/29 05:39:25;;;;;;;3.17;2.87;;;;;;;;;;5139845;27;20192;-74
2021/12/29 05:41:53;;;;;;;3.13;2.80;;;;;;;;;;5141876;27;20232;-74
2021/12/29 05:44:21;;;;;;;3.63;3.00;;;;;;;;;;5141794;27;20208;-74
2021/12/29 05:46:49;;;;;;;3.63;2.90;;;;;;;;;;5139740;27;20246;-74
2021/12/29 05:49:18;;;;;;;2.40;2.20;;;;;;;;;;5141898;27;20723;-74
2021/12/29 05:51:47;;;;;;;2.43;2.23;;;;;;;;;;5142120;27;20285;-74
2021/12/29 05:54:15;;;;;;;2.70;2.50;;;;;;;;;;5142135;27;20210;-74
2021/12/29 05:56:44;;;;;;;3.67;2.57;;;;;;;;;;5148451;27;20706;-74
2021/12/29 05:59:12;;;;;;;3.50;3.13;;;;;;;;;;5162000;27;20650;-74
2021/12/29 06:01:43;;;;;;;3.10;2.80;;;;;;;;;;5140659;27;20640;-74
2021/12/29 06:04:11;;;;;;;3.03;2.83;;;;;;;;;;5147440;27;20193;-74
2021/12/29 06:06:39;;;;;;;2.50;2.30;;;;;;;;;;5132835;27;20224;-74
2021/12/29 06:09:07;;;;;;;2.37;2.17;;;;;;;;;;5129683;27;20563;-75
2021/12/29 06:11:35;;;;;;;2.63;2.33;;;;;;;;;;5141482;27;20230;-75
2021/12/29 06:14:05;;;;;;;2.10;2.00;;;;;;;;;;5141385;27;20206;-74
2021/12/29 06:16:32;;;;;;;2.47;2.30;;;;;;;;;;5141414;27;20226;-74
2021/12/29 06:19:01;;;;;;;2.73;2.53;;;;;;;;;;5141590;27;20206;-75
2021/12/29 06:21:29;;;;;;;3.37;3.07;;;;;;;;;;5140098;27;20206;-75
2021/12/29 06:23:57;;;;;;;2.73;2.53;;;;;;;;;;5139007;27;20246;-75
2021/12/29 06:26:25;;;;;;;2.40;2.20;;;;;;;;;;5142861;27;20220;-73
2021/12/29 06:28:53;;;;;;;2.30;2.10;;;;;;;;;;5143208;27;20203;-73
2021/12/29 06:31:23;;;;;;;2.70;2.50;;;;;;;;;;5140921;27;20226;-73
2021/12/29 06:33:51;;;;;;;3.00;2.40;;;;;;;;;;5138461;27;20193;-74
2021/12/29 06:36:19;;;;;;;3.20;2.83;;;;;;;;;;5137696;27;20230;-74
2021/12/29 06:38:47;;;;;;;3.30;3.00;;;;;;;;;;5129773;27;20205;-74
2021/12/29 06:41:15;;;;;;;7.67;3.07;;;;;;;;;;5137980;27;20279;-74
2021/12/29 06:43:43;;;;;;;5.57;2.80;;;;;;;;;;5139952;27;20291;-74
2021/12/29 06:46:11;;;;;;;3.50;2.83;;;;;;;;;;5140331;27;20224;-72
2021/12/29 06:48:40;;;;;;;3.20;2.90;;;;;;;;;;5137423;27;20211;-72
2021/12/29 06:51:08;;;;;;;4.07;2.73;;;;;;;;;;5130832;27;20223;-72
2021/12/29 06:53:36;;;;;;;3.57;2.83;;;;;;;;;;5140417;27;20283;-73
2021/12/29 06:56:05;;;;;;;3.87;3.07;;;;;;;;;;5140170;27;20220;-72
2021/12/29 06:58:34;;;;;;;4.00;2.93;;;;;;;;;;5140063;27;20291;-72
2021/12/29 07:01:02;;;;;;;5.47;3.30;;;;;;;;;;5137251;27;20196;-72
2021/12/29 07:03:30;;;;;;;4.60;4.20;;;;;;;;;;5150092;27;20212;-71
2021/12/29 07:06:00;;;;;;;7.07;3.10;;;;;;;;;;5129158;27;20698;-72
2021/12/29 07:08:28;;;;;;;5.40;3.30;;;;;;;;;;5130028;27;20226;-72
2021/12/29 07:10:56;;;;;;;3.57;3.03;;;;;;;;;;5129115;27;20196;-72
2021/12/29 07:13:24;;;;;;;4.80;3.17;;;;;;;;;;5130466;27;20211;-72
2021/12/29 07:15:52;;;;;;;3.80;2.87;;;;;;;;;;5147746;27;20223;-72
2021/12/29 07:18:20;;;;;;;5.10;3.27;;;;;;;;;;5144246;27;20205;-72
2021/12/29 07:20:48;;;;;;;4.57;3.20;;;;;;;;;;5145233;27;20199;-71
2021/12/29 07:23:17;;;;;;;6.77;3.43;;;;;;;;;;5146163;27;20219;-73
2021/12/29 07:25:45;;;;;;;3.90;3.07;;;;;;;;;;5145375;27;20226;-72
2021/12/29 07:28:13;;;;;;;3.60;2.90;;;;;;;;;;5145559;27;20200;-73
2021/12/29 07:30:41;;;;;;;3.53;2.90;;;;;;;;;;5148023;27;20210;-71
2021/12/29 07:33:09;;;;;;;3.57;3.23;;;;;;;;;;5141777;27;20226;-71
2021/12/29 07:35:37;;;;;;;4.17;3.73;;;;;;;;;;5137894;27;20228;-72
2021/12/29 07:38:05;;;;;;;4.10;3.70;;;;;;;;;;5138852;27;20215;-71
2021/12/29 07:40:35;;;;;;;4.67;3.37;;;;;;;;;;5133169;27;20671;-72
2021/12/29 07:43:03;;;;;;;3.20;2.90;;;;;;;;;;5139258;27;20238;-71
2021/12/29 07:45:32;;;;;;;4.07;3.70;;;;;;;;;;5137383;27;20202;-73
2021/12/29 07:48:02;;;;;;;3.60;3.30;;;;;;;;;;5138718;27;20233;-72
2021/12/29 07:50:29;;;;;;;4.33;3.17;;;;;;;;;;5133764;27;20193;-71
2021/12/29 07:52:58;;;;;;;8.07;5.27;;;;;;;;;;5131680;27;20226;-71
2021/12/29 07:55:26;;;;;;;4.53;4.00;;;;;;;;;;5139163;27;20735;-71
2021/12/29 07:57:56;;;;;;;5.33;4.17;;;;;;;;;;5131390;27;20295;-71
2021/12/29 08:00:24;;;;;;;5.80;4.67;;;;;;;;;;5135369;27;20278;-71
2021/12/29 08:02:52;;;;;;;6.67;4.00;;;;;;;;;;5145872;27;20249;-71
2021/12/29 08:05:22;;;;;;;4.93;4.30;;;;;;;;;;5146394;27;20211;-71
2021/12/29 08:07:51;;;;;;;7.30;4.87;;;;;;;;;;5139977;27;20212;-70
2021/12/29 08:10:19;;;;;;;9.67;4.50;;;;;;;;;;5139183;27;20204;-72
2021/12/29 08:12:47;;;;;;;5.53;4.30;;;;;;;;;;5142446;27;20229;-69
2021/12/29 08:15:17;;;;;;;6.60;4.87;;;;;;;;;;5147739;27;20198;-70
2021/12/29 08:17:50;;;;;;;9.00;5.13;;;;;;;;;;5140744;27;20219;-69
2021/12/29 08:20:18;;;;;;;6.90;5.70;;;;;;;;;;5154913;27;20225;-71
2021/12/29 08:22:46;;;;;;;9.57;5.73;;;;;;;;;;5159401;27;20207;-70
2021/12/29 08:25:14;;;;;;;8.70;5.40;;;;;;;;;;5140945;27;20199;-68
2021/12/29 08:27:42;;;;;;;7.43;6.03;;;;;;;;;;5138375;27;20224;-70
2021/12/29 08:30:10;;;;;;;6.37;5.13;;;;;;;;;;5138882;27;20212;-69
2021/12/29 08:32:40;;;;;;;6.83;4.40;;;;;;;;;;5138474;27;20224;-69
2021/12/29 08:35:08;;;;;;;5.50;4.47;;;;;;;;;;5137790;27;20627;-67
2021/12/29 08:37:36;;;;;;;4.20;3.70;;;;;;;;;;5136136;27;20220;-71
2021/12/29 08:40:07;;;;;;;5.40;4.20;;;;;;;;;;5138611;27;20212;-69
2021/12/29 08:42:35;;;;;;;5.03;4.07;;;;;;;;;;5138316;27;20718;-70
2021/12/29 08:45:03;;;;;;;4.47;3.30;;;;;;;;;;5138652;27;20208;-69
2021/12/29 08:47:31;;;;;;;4.30;3.90;;;;;;;;;;5138542;28;20702;-71
2021/12/29 08:50:01;;;;;;;3.80;3.33;;;;;;;;;;5138636;28;20204;-70
2021/12/29 08:52:29;;;;;;;3.03;2.63;;;;;;;;;;5129513;28;20216;-70
2021/12/29 08:54:57;;;;;;;2.43;2.20;;;;;;;;;;5143014;27;20200;-71
2021/12/29 08:57:25;;;;;;;2.40;1.90;;;;;;;;;;5147196;27;20220;-72
2021/12/29 08:59:53;;;;;;;2.33;2.10;;;;;;;;;;5147741;27;20774;-71
2021/12/29 09:02:20;;;;;;;2.10;1.90;;;;;;;;;;5148712;27;20195;-71
2021/12/29 09:04:49;;;;;;;2.47;1.67;;;;;;;;;;5147484;27;20600;-70
2021/12/29 09:07:18;;;;;;;1.90;1.70;;;;;;;;;;5151141;27;20226;-70
2021/12/29 09:09:46;;;;;;;2.30;2.10;;;;;;;;;;5140674;27;20202;-70
2021/12/29 09:12:14;;;;;;;2.83;2.63;;;;;;;;;;5147823;27;20675;-71
2021/12/29 09:14:44;;;;;;;2.83;2.63;;;;;;;;;;5141184;27;20205;-70
2021/12/29 09:17:12;;;;;;;2.93;2.63;;;;;;;;;;5131180;27;20220;-71
2021/12/29 09:19:44;;;;;;;3.43;3.13;;;;;;;;;;5127877;27;20205;-71
2021/12/29 09:22:12;;;;;;;4.80;2.67;;;;;;;;;;5132314;27;20211;-71
2021/12/29 09:24:43;;;;;;;2.97;2.77;;;;;;;;;;5141216;27;20199;-72
2021/12/29 09:27:11;;;;;;;3.93;3.13;;;;;;;;;;5149950;27;20233;-72
2021/12/29 09:29:39;;;;;;;2.57;2.23;;;;;;;;;;5143162;27;20203;-72
2021/12/29 09:32:07;;;;;;;2.60;2.37;;;;;;;;;;5142233;27;20210;-72
2021/12/29 09:34:36;;;;;;;3.03;2.70;;;;;;;;;;5141040;27;20203;-72
2021/12/29 09:37:04;;;;;;;3.03;2.73;;;;;;;;;;5129592;27;20216;-72
2021/12/29 09:39:32;;;;;;;2.37;2.17;;;;;;;;;;5134657;27;20207;-71
2021/12/29 09:42:02;;;;;;;3.83;2.70;;;;;;;;;;5141345;27;20236;-71
2021/12/29 09:44:31;;;;;;;3.33;3.03;;;;;;;;;;5141913;27;20192;-72
2021/12/29 09:46:59;;;;;;;2.27;2.03;;;;;;;;;;5141272;27;20567;-71
2021/12/29 09:49:27;;;;;;;2.50;1.97;;;;;;;;;;5140795;27;20206;-71
2021/12/29 09:51:55;;;;;;;3.07;2.30;;;;;;;;;;5141713;27;20204;-71
2021/12/29 09:54:23;;;;;;;2.27;2.10;;;;;;;;;;5129669;27;20598;-71
2021/12/29 09:56:51;;;;;;;2.10;1.90;;;;;;;;;;5147773;27;20223;-71
2021/12/29 09:59:20;;;;;;;2.77;1.80;;;;;;;;;;5162373;27;20207;-71
2021/12/29 10:01:49;;;;;;;2.23;1.93;;;;;;;;;;5145693;27;20633;-71
2021/12/29 10:04:18;;;;;;;3.87;1.50;;;;;;;;;;5139953;27;20554;-71
2021/12/29 10:06:46;;;;;;;1.60;1.50;;;;;;;;;;5141723;27;20228;-71
2021/12/29 10:09:16;;;;;;;2.67;1.47;;;;;;;;;;5126562;27;20211;-71
2021/12/29 10:11:45;;;;;;;1.73;1.40;;;;;;;;;;5140543;27;20200;-71
2021/12/29 10:14:14;;;;;;;3.03;1.10;;;;;;;;;;5140127;27;20630;-71
2021/12/29 10:16:46;;;;;;;2.50;1.00;;;;;;;;;;5134007;27;20229;-71
2021/12/29 10:19:15;;;;;;;1.03;1.00;;;;;;;;;;5137993;27;20215;-71
2021/12/29 10:21:44;;;;;;;1.27;1.03;;;;;;;;;;5141810;27;20208;-71
2021/12/29 10:24:12;;;;;;;1.00;1.00;;;;;;;;;;5136902;27;20196;-71
2021/12/29 10:26:41;;;;;;;1.23;1.17;;;;;;;;;;5141443;27;20228;-71
2021/12/29 10:29:10;;;;;;;1.43;1.27;;;;;;;;;;5140806;27;20208;-71
2021/12/29 10:31:40;;;;;;;3.00;1.70;;;;;;;;;;5141347;27;20208;-71
2021/12/29 10:34:10;;;;;;;1.67;1.37;;;;;;;;;;5139836;27;20216;-71
2021/12/29 10:36:40;;;;;;;8.00;2.03;;;;;;;;;;5139399;27;20238;-71
2021/12/29 10:39:10;;;;;;;2.10;1.50;;;;;;;;;;5141624;27;20204;-71
2021/12/29 10:41:49;;;;;;;1.13;1.03;;;;;;;;;;5140647;27;20718;-71
2021/12/29 10:44:17;;;;;;;1.90;1.47;;;;;;;;;;5140601;27;20658;-71
2021/12/29 10:46:45;;;;;;;3.67;1.30;;;;;;;;;;5140959;27;20228;-71
2021/12/29 10:49:15;;;;;;;1.57;1.03;;;;;;;;;;5135294;27;20201;-71
2021/12/29 10:51:43;;;;;;;1.40;1.30;;;;;;;;;;5137964;27;20670;-71
2021/12/29 10:54:13;;;;;;;1.97;1.70;;;;;;;;;;5140687;27;20698;-71
2021/12/29 10:56:42;;;;;;;1.83;1.40;;;;;;;;;;5143916;27;20575;-71
2021/12/29 10:59:14;;;;;;;1.70;1.40;;;;;;;;;;5161608;27;20203;-72
2021/12/29 11:01:42;;;;;;;4.07;3.10;;;;;;;;;;5152889;27;20200;-72
2021/12/29 11:04:12;;;;;;;5.07;2.87;;;;;;;;;;5137267;27;20231;-72
2021/12/29 11:06:46;;;;;;;3.10;2.67;;;;;;;;;;5138233;27;20294;-71
2021/12/29 11:09:16;;;;;;;6.27;3.80;;;;;;;;;;5134690;27;20659;-72
2021/12/29 11:11:46;;;;;;;7.53;4.03;;;;;;;;;;5141583;27;20204;-73
2021/12/29 11:14:14;;;;;;;3.00;2.40;;;;;;;;;;5130218;27;20223;-73
2021/12/29 11:16:43;;;;;;;3.70;3.40;;;;;;;;;;5131053;27;20695;-72
2021/12/29 11:19:12;;;;;;;5.50;4.70;;;;;;;;;;5132404;27;20200;-71
2021/12/29 11:21:41;;;;;;;7.53;5.80;;;;;;;;;;5111693;28;20193;-72
2021/12/29 11:24:14;;;;;;;2.90;2.60;;;;;;;;;;5130338;27;20558;-71
2021/12/29 11:26:43;;;;;;;1.70;1.60;;;;;;;;;;5129449;27;20223;-72
2021/12/29 11:29:13;;;;;;;2.40;2.03;;;;;;;;;;5111823;27;20260;-72
2021/12/29 11:31:43;;;;;;;2.00;1.77;;;;;;;;;;5130162;27;20211;-73
2021/12/29 11:34:16;;;;;;;2.67;1.67;;;;;;;;;;5130544;27;20226;-72
2021/12/29 11:36:45;;;;;;;2.80;2.50;;;;;;;;;;5130142;27;20217;-72
2021/12/29 11:39:14;;;;;;;6.67;5.80;;;;;;;;;;5131174;27;20200;-72
2021/12/29 11:41:42;;;;;;;7.90;5.33;;;;;;;;;;5130800;27;20253;-71
2021/12/29 11:44:11;;;;;;;6.83;5.03;;;;;;;;;;5129598;27;20203;-74
2021/12/29 11:46:39;;;;;;;10.80;4.90;;;;;;;;;;5129583;27;20220;-73
2021/12/29 11:49:07;;;;;;;4.43;3.90;;;;;;;;;;5129599;27;20197;-75
2021/12/29 11:51:38;;;;;;;5.67;3.87;;;;;;;;;;5125426;27;20207;-72
2021/12/29 11:54:11;;;;;;;5.57;3.57;;;;;;;;;;5128877;27;20216;-74
2021/12/29 11:56:43;;;;;;;3.40;3.03;;;;;;;;;;5130547;27;20223;-73
2021/12/29 11:59:11;;;;;;;3.13;2.57;;;;;;;;;;5129059;27;20192;-77
2021/12/29 12:01:57;;;;;;;3.30;2.30;;;;;;;;;;5134054;27;20537;-74
2021/12/29 12:04:25;;;;;;;5.57;2.47;;;;;;;;;;5127285;27;20273;-73
2021/12/29 12:07:00;;;;;;;6.73;2.77;;;;;;;;;;5132418;27;20216;-75
2021/12/29 12:09:28;;;;;;;2.70;2.50;;;;;;;;;;5128370;27;20618;-75
2021/12/29 12:11:59;;;;;;;2.40;2.17;;;;;;;;;;5131116;27;20218;-74
2021/12/29 12:14:30;;;;;;;5.33;3.67;;;;;;;;;;5128857;27;20308;-74
2021/12/29 12:17:00;;;;;;;7.07;4.97;;;;;;;;;;5131158;27;20251;-74
2021/12/29 12:19:29;;;;;;;9.00;6.67;;;;;;;;;;5136039;27;20204;-74
2021/12/29 12:22:05;;;;;;;6.40;5.47;;;;;;;;;;5125225;27;20264;-72
2021/12/29 12:24:34;;;;;;;3.40;3.10;;;;;;;;;;5136040;27;20200;-72
2021/12/29 12:27:05;;;;;;;2.63;2.43;;;;;;;;;;5140329;27;20224;-72
2021/12/29 12:29:33;;;;;;;2.17;1.97;;;;;;;;;;5130316;27;20204;-73
2021/12/29 12:32:04;;;;;;;3.43;2.20;;;;;;;;;;5140779;27;20208;-73
2021/12/29 12:34:32;;;;;;;3.27;2.93;;;;;;;;;;5140039;27;20586;-72
2021/12/29 12:37:02;;;;;;;2.67;1.93;;;;;;;;;;5142410;27;20316;-73
2021/12/29 12:39:30;;;;;;;2.73;2.00;;;;;;;;;;5127614;27;20204;-73
2021/12/29 12:41:59;;;;;;;2.73;2.30;;;;;;;;;;5139888;27;20223;-74
2021/12/29 12:44:34;;;;;;;2.43;2.23;;;;;;;;;;5146831;27;20187;-71
2021/12/29 12:47:10;;;;;;;4.67;3.00;;;;;;;;;;5148224;27;20220;-72
2021/12/29 12:50:12;;;;;;;2.80;1.83;;;;;;;;;;5151720;27;20262;-71
2021/12/29 12:52:42;;;;;;;4.23;3.07;;;;;;;;;;5138924;27;20206;-71
2021/12/29 12:55:11;;;;;;;2.90;2.60;;;;;;;;;;5137425;28;20232;-72
2021/12/29 12:57:40;;;;;;;3.00;2.57;;;;;;;;;;5142095;27;20298;-70
2021/12/29 13:00:15;;;;;;;2.67;2.33;;;;;;;;;;5138859;27;20713;-68
2021/12/29 13:02:44;;;;;;;4.00;2.57;;;;;;;;;;5144435;27;20230;-68
2021/12/29 13:05:13;;;;;;;8.80;2.70;;;;;;;;;;5145928;27;20273;-67
2021/12/29 13:07:43;;;;;;;3.03;2.43;;;;;;;;;;5145789;27;20251;-68
2021/12/29 13:10:12;;;;;;;4.33;2.80;;;;;;;;;;5143846;27;20235;-67
2021/12/29 13:12:46;;;;;;;3.97;3.50;;;;;;;;;;5148599;27;20207;-68
2021/12/29 13:15:16;;;;;;;3.80;3.40;;;;;;;;;;5147176;27;20215;-68
2021/12/29 13:17:46;;;;;;;3.83;3.20;;;;;;;;;;5146872;27;20658;-68
2021/12/29 13:20:15;;;;;;;4.27;3.10;;;;;;;;;;5146489;27;20691;-68
2021/12/29 13:22:44;;;;;;;6.57;3.20;;;;;;;;;;5148261;27;20682;-68
2021/12/29 13:25:13;;;;;;;4.17;2.90;;;;;;;;;;5148159;27;20662;-68
2021/12/29 13:27:42;;;;;;;5.27;3.70;;;;;;;;;;5147679;27;20221;-69
2021/12/29 13:30:11;;;;;;;5.33;3.93;;;;;;;;;;5145500;27;20236;-68
2021/12/29 13:32:51;;;;;;;5.63;4.30;;;;;;;;;;5145746;27;20227;-68
2021/12/29 13:35:24;;;;;;;4.23;3.80;;;;;;;;;;5144834;27;20678;-68
2021/12/29 13:37:52;;;;;;;4.90;4.07;;;;;;;;;;5141383;27;20318;-68
2021/12/29 13:40:27;;;;;;;4.67;3.43;;;;;;;;;;5147708;27;20196;-69
2021/12/29 13:42:55;;;;;;;4.07;3.07;;;;;;;;;;5144954;27;20227;-69
2021/12/29 13:45:24;;;;;;;3.73;3.27;;;;;;;;;;5146388;27;20192;-69
2021/12/29 13:47:53;;;;;;;4.77;4.10;;;;;;;;;;5150652;27;20212;-69
2021/12/29 13:50:22;;;;;;;4.43;3.73;;;;;;;;;;5150353;27;20680;-69
2021/12/29 13:52:56;;;;;;;7.37;4.00;;;;;;;;;;5149624;27;20214;-71
2021/12/29 13:55:25;;;;;;;5.77;3.60;;;;;;;;;;5150509;27;20215;-68
2021/12/29 13:57:54;;;;;;;6.07;4.13;;;;;;;;;;5144502;27;20287;-68
2021/12/29 14:00:22;;;;;;;5.13;4.63;;;;;;;;;;5139430;27;20210;-68
2021/12/29 14:02:50;;;;;;;9.00;4.97;;;;;;;;;;5149617;27;20567;-68
2021/12/29 14:05:19;;;;;;;5.57;4.43;;;;;;;;;;5141763;27;20283;-69
2021/12/29 14:07:47;;;;;;;5.50;4.87;;;;;;;;;;5147158;27;20298;-71
2021/12/29 14:10:15;;;;;;;6.00;4.60;;;;;;;;;;5136854;27;20232;-71
2021/12/29 14:12:43;;;;;;;5.07;4.30;;;;;;;;;;5147840;27;20196;-73
2021/12/29 14:15:16;;;;;;;5.17;4.30;;;;;;;;;;5149945;27;20222;-72
2021/12/29 14:17:47;;;;;;;4.87;4.27;;;;;;;;;;5146872;27;20233;-72
2021/12/29 14:20:16;;;;;;;4.67;4.13;;;;;;;;;;5149355;27;20204;-73
2021/12/29 14:22:45;;;;;;;5.07;4.27;;;;;;;;;;5148302;27;20200;-73
2021/12/29 14:25:32;;;;;;;5.90;4.13;;;;;;;;;;5140109;27;20196;-75
2021/12/29 14:28:00;;;;;;;4.80;4.20;;;;;;;;;;5142485;27;20197;-75
2021/12/29 14:30:29;;;;;;;5.00;4.20;;;;;;;;;;5148269;27;20196;-72
2021/12/29 14:32:58;;;;;;;7.80;4.63;;;;;;;;;;5147358;27;20267;-74
2021/12/29 14:35:26;;;;;;;4.67;4.27;;;;;;;;;;5149677;27;20227;-74
2021/12/29 14:37:56;;;;;;;4.83;4.20;;;;;;;;;;5144084;27;20214;-74
2021/12/29 14:40:25;;;;;;;5.87;4.87;;;;;;;;;;5147935;27;20200;-74
2021/12/29 14:42:53;;;;;;;4.70;4.13;;;;;;;;;;5148205;27;20227;-75
2021/12/29 14:45:21;;;;;;;6.17;3.93;;;;;;;;;;5149304;27;20267;-75
2021/12/29 14:47:50;;;;;;;6.67;4.20;;;;;;;;;;5143279;27;20304;-74
2021/12/29 14:50:20;;;;;;;5.30;4.60;;;;;;;;;;5144471;27;20208;-73
2021/12/29 14:52:48;;;;;;;8.10;4.63;;;;;;;;;;5126840;27;20228;-76
2021/12/29 14:55:19;;;;;;;5.80;4.80;;;;;;;;;;5129112;27;20563;-76
2021/12/29 14:57:47;;;;;;;5.13;4.03;;;;;;;;;;5129645;27;20225;-75